sensor_id;sensor_type;location;lat;lon;timestamp;P1;durP1;ratioP1;P2;durP2;ratioP2
870;SDS011;422;51.280;7.236;2023-07-20T00:00:11;9.77;;;8.33;;
870;SDS011;422;51.280;7.236;2023-07-20T00:02:39;10.00;;;8.00;;
870;SDS011;422;51.280;7.236;2023-07-20T00:05:06;10.73;;;7.90;;
870;SDS011;422;51.280;7.236;2023-07-20T00:07:33;12.67;;;9.00;;
870;SDS011;422;51.280;7.236;2023-07-20T00:10:00;10.53;;;8.57;;
870;SDS011;422;51.280;7.236;2023-07-20T00:12:29;10.13;;;8.77;;
870;SDS011;422;51.280;7.236;2023-07-20T00:14:56;11.10;;;8.70;;
870;SDS011;422;51.280;7.236;2023-07-20T00:17:23;9.90;;;8.90;;
870;SDS011;422;51.280;7.236;2023-07-20T00:19:50;8.90;;;8.10;;
870;SDS011;422;51.280;7.236;2023-07-20T00:22:17;11.87;;;9.13;;
870;SDS011;422;51.280;7.236;2023-07-20T00:24:45;15.17;;;9.17;;
870;SDS011;422;51.280;7.236;2023-07-20T00:27:12;10.93;;;9.07;;
870;SDS011;422;51.280;7.236;2023-07-20T00:29:40;10.73;;;8.70;;
870;SDS011;422;51.280;7.236;2023-07-20T00:32:08;11.20;;;9.10;;
870;SDS011;422;51.280;7.236;2023-07-20T00:34:35;11.23;;;10.03;;
870;SDS011;422;51.280;7.236;2023-07-20T00:37:02;12.13;;;8.70;;
870;SDS011;422;51.280;7.236;2023-07-20T00:39:30;10.93;;;9.87;;
870;SDS011;422;51.280;7.236;2023-07-20T00:41:57;11.80;;;10.57;;
870;SDS011;422;51.280;7.236;2023-07-20T00:44:24;14.33;;;10.57;;
870;SDS011;422;51.280;7.236;2023-07-20T00:46:53;11.20;;;10.10;;
870;SDS011;422;51.280;7.236;2023-07-20T00:49:20;14.13;;;10.73;;
870;SDS011;422;51.280;7.236;2023-07-20T00:51:49;13.30;;;12.00;;
870;SDS011;422;51.280;7.236;2023-07-20T00:54:16;11.97;;;10.70;;
870;SDS011;422;51.280;7.236;2023-07-20T00:56:44;12.00;;;10.83;;
870;SDS011;422;51.280;7.236;2023-07-20T00:59:12;12.90;;;11.60;;
870;SDS011;422;51.280;7.236;2023-07-20T01:01:40;12.40;;;11.20;;
870;SDS011;422;51.280;7.236;2023-07-20T01:04:09;12.83;;;11.60;;
870;SDS011;422;51.280;7.236;2023-07-20T01:06:38;13.07;;;11.47;;
870;SDS011;422;51.280;7.236;2023-07-20T01:09:13;15.60;;;12.63;;
870;SDS011;422;51.280;7.236;2023-07-20T01:11:46;12.50;;;11.30;;
870;SDS011;422;51.280;7.236;2023-07-20T01:14:20;16.43;;;10.73;;
870;SDS011;422;51.280;7.236;2023-07-20T01:16:50;14.60;;;11.83;;
870;SDS011;422;51.280;7.236;2023-07-20T01:19:20;12.67;;;11.33;;
870;SDS011;422;51.280;7.236;2023-07-20T01:21:48;12.80;;;11.60;;
870;SDS011;422;51.280;7.236;2023-07-20T01:27:25;12.47;;;11.27;;
870;SDS011;422;51.280;7.236;2023-07-20T01:30:15;12.43;;;10.77;;
870;SDS011;422;51.280;7.236;2023-07-20T01:33:03;13.13;;;11.53;;
870;SDS011;422;51.280;7.236;2023-07-20T01:35:32;16.90;;;12.20;;
870;SDS011;422;51.280;7.236;2023-07-20T01:38:00;13.30;;;12.10;;
870;SDS011;422;51.280;7.236;2023-07-20T01:40:29;13.17;;;11.83;;
870;SDS011;422;51.280;7.236;2023-07-20T01:42:56;13.20;;;11.90;;
870;SDS011;422;51.280;7.236;2023-07-20T01:45:23;12.87;;;11.50;;
870;SDS011;422;51.280;7.236;2023-07-20T01:47:52;12.83;;;11.53;;
870;SDS011;422;51.280;7.236;2023-07-20T01:50:20;11.83;;;10.60;;
870;SDS011;422;51.280;7.236;2023-07-20T01:52:47;13.33;;;11.37;;
870;SDS011;422;51.280;7.236;2023-07-20T01:55:15;13.17;;;11.80;;
870;SDS011;422;51.280;7.236;2023-07-20T01:57:42;13.40;;;11.37;;
870;SDS011;422;51.280;7.236;2023-07-20T02:00:09;14.60;;;12.30;;
870;SDS011;422;51.280;7.236;2023-07-20T02:02:37;12.60;;;11.40;;
870;SDS011;422;51.280;7.236;2023-07-20T02:05:05;18.60;;;11.40;;
870;SDS011;422;51.280;7.236;2023-07-20T02:07:34;12.37;;;11.27;;
870;SDS011;422;51.280;7.236;2023-07-20T02:10:01;12.97;;;11.53;;
870;SDS011;422;51.280;7.236;2023-07-20T02:12:28;12.80;;;11.40;;
870;SDS011;422;51.280;7.236;2023-07-20T02:14:55;13.07;;;11.73;;
870;SDS011;422;51.280;7.236;2023-07-20T02:17:23;12.00;;;10.80;;
870;SDS011;422;51.280;7.236;2023-07-20T02:19:50;11.73;;;10.53;;
870;SDS011;422;51.280;7.236;2023-07-20T02:22:20;12.23;;;11.03;;
870;SDS011;422;51.280;7.236;2023-07-20T02:24:48;12.00;;;10.80;;
870;SDS011;422;51.280;7.236;2023-07-20T02:27:16;11.73;;;10.63;;
870;SDS011;422;51.280;7.236;2023-07-20T02:29:43;14.50;;;9.90;;
870;SDS011;422;51.280;7.236;2023-07-20T02:32:10;11.47;;;10.33;;
870;SDS011;422;51.280;7.236;2023-07-20T02:34:38;11.90;;;8.70;;
870;SDS011;422;51.280;7.236;2023-07-20T02:37:05;15.00;;;10.50;;
870;SDS011;422;51.280;7.236;2023-07-20T02:39:32;10.30;;;9.00;;
870;SDS011;422;51.280;7.236;2023-07-20T02:42:01;10.50;;;9.07;;
870;SDS011;422;51.280;7.236;2023-07-20T02:44:28;11.00;;;9.87;;
870;SDS011;422;51.280;7.236;2023-07-20T02:46:56;10.73;;;8.60;;
870;SDS011;422;51.280;7.236;2023-07-20T02:49:23;12.60;;;9.37;;
870;SDS011;422;51.280;7.236;2023-07-20T02:51:50;12.57;;;9.70;;
870;SDS011;422;51.280;7.236;2023-07-20T02:54:17;12.90;;;10.03;;
870;SDS011;422;51.280;7.236;2023-07-20T02:56:44;12.27;;;9.30;;
870;SDS011;422;51.280;7.236;2023-07-20T02:59:13;13.30;;;9.53;;
870;SDS011;422;51.280;7.236;2023-07-20T03:01:40;9.33;;;8.43;;
870;SDS011;422;51.280;7.236;2023-07-20T03:04:08;11.93;;;9.47;;
870;SDS011;422;51.280;7.236;2023-07-20T03:09:53;10.37;;;9.27;;
870;SDS011;422;51.280;7.236;2023-07-20T03:12:20;11.60;;;10.13;;
870;SDS011;422;51.280;7.236;2023-07-20T03:14:49;11.37;;;8.30;;
870;SDS011;422;51.280;7.236;2023-07-20T03:17:16;12.80;;;9.50;;
870;SDS011;422;51.280;7.236;2023-07-20T03:19:45;10.17;;;9.07;;
870;SDS011;422;51.280;7.236;2023-07-20T03:22:13;10.40;;;7.70;;
870;SDS011;422;51.280;7.236;2023-07-20T03:24:40;12.07;;;9.63;;
870;SDS011;422;51.280;7.236;2023-07-20T03:27:07;10.03;;;9.03;;
870;SDS011;422;51.280;7.236;2023-07-20T03:29:34;9.63;;;8.63;;
870;SDS011;422;51.280;7.236;2023-07-20T03:32:03;11.43;;;9.53;;
870;SDS011;422;51.280;7.236;2023-07-20T03:34:31;9.73;;;8.23;;
870;SDS011;422;51.280;7.236;2023-07-20T03:36:58;11.10;;;9.20;;
870;SDS011;422;51.280;7.236;2023-07-20T03:39:26;12.40;;;9.60;;
870;SDS011;422;51.280;7.236;2023-07-20T03:41:53;10.93;;;9.43;;
870;SDS011;422;51.280;7.236;2023-07-20T03:44:20;12.30;;;8.27;;
870;SDS011;422;51.280;7.236;2023-07-20T03:46:47;9.37;;;8.47;;
870;SDS011;422;51.280;7.236;2023-07-20T03:49:16;11.03;;;9.10;;
870;SDS011;422;51.280;7.236;2023-07-20T03:51:43;10.13;;;9.13;;
870;SDS011;422;51.280;7.236;2023-07-20T03:54:10;12.07;;;8.90;;
870;SDS011;422;51.280;7.236;2023-07-20T03:56:37;12.70;;;10.27;;
870;SDS011;422;51.280;7.236;2023-07-20T03:59:05;11.80;;;9.77;;
870;SDS011;422;51.280;7.236;2023-07-20T04:01:32;14.33;;;10.77;;
870;SDS011;422;51.280;7.236;2023-07-20T04:04:01;11.90;;;10.70;;
870;SDS011;422;51.280;7.236;2023-07-20T04:06:32;13.57;;;10.20;;
870;SDS011;422;51.280;7.236;2023-07-20T04:09:00;14.53;;;10.40;;
870;SDS011;422;51.280;7.236;2023-07-20T04:11:27;16.87;;;14.17;;
870;SDS011;422;51.280;7.236;2023-07-20T04:13:54;16.40;;;12.40;;
870;SDS011;422;51.280;7.236;2023-07-20T04:16:21;14.67;;;12.93;;
870;SDS011;422;51.280;7.236;2023-07-20T04:18:48;13.07;;;11.57;;
870;SDS011;422;51.280;7.236;2023-07-20T04:21:16;13.37;;;11.83;;
870;SDS011;422;51.280;7.236;2023-07-20T04:23:44;14.97;;;12.60;;
870;SDS011;422;51.280;7.236;2023-07-20T04:26:11;17.67;;;13.97;;
870;SDS011;422;51.280;7.236;2023-07-20T04:28:39;18.03;;;13.37;;
870;SDS011;422;51.280;7.236;2023-07-20T04:31:10;14.30;;;12.80;;
870;SDS011;422;51.280;7.236;2023-07-20T04:33:38;16.00;;;13.60;;
870;SDS011;422;51.280;7.236;2023-07-20T04:36:05;14.60;;;13.20;;
870;SDS011;422;51.280;7.236;2023-07-20T04:38:34;15.37;;;13.40;;
870;SDS011;422;51.280;7.236;2023-07-20T04:41:03;21.03;;;15.87;;
870;SDS011;422;51.280;7.236;2023-07-20T04:43:30;16.97;;;14.73;;
870;SDS011;422;51.280;7.236;2023-07-20T04:45:57;18.67;;;14.97;;
870;SDS011;422;51.280;7.236;2023-07-20T04:48:24;19.77;;;16.47;;
870;SDS011;422;51.280;7.236;2023-07-20T04:50:51;20.40;;;16.50;;
870;SDS011;422;51.280;7.236;2023-07-20T04:53:19;20.00;;;16.80;;
870;SDS011;422;51.280;7.236;2023-07-20T04:55:49;19.27;;;17.27;;
870;SDS011;422;51.280;7.236;2023-07-20T04:58:18;19.40;;;17.30;;
870;SDS011;422;51.280;7.236;2023-07-20T05:00:46;20.43;;;17.83;;
870;SDS011;422;51.280;7.236;2023-07-20T05:03:14;24.67;;;19.00;;
870;SDS011;422;51.280;7.236;2023-07-20T05:05:41;21.67;;;18.47;;
870;SDS011;422;51.280;7.236;2023-07-20T05:08:08;22.93;;;20.40;;
870;SDS011;422;51.280;7.236;2023-07-20T05:10:35;22.03;;;19.13;;
870;SDS011;422;51.280;7.236;2023-07-20T05:13:03;23.13;;;20.70;;
870;SDS011;422;51.280;7.236;2023-07-20T05:15:32;24.30;;;20.40;;
870;SDS011;422;51.280;7.236;2023-07-20T05:17:59;27.63;;;20.73;;
870;SDS011;422;51.280;7.236;2023-07-20T05:20:27;23.47;;;20.57;;
870;SDS011;422;51.280;7.236;2023-07-20T05:22:54;23.00;;;19.53;;
870;SDS011;422;51.280;7.236;2023-07-20T05:25:21;26.33;;;22.10;;
870;SDS011;422;51.280;7.236;2023-07-20T05:27:48;25.63;;;22.80;;
870;SDS011;422;51.280;7.236;2023-07-20T05:30:16;29.17;;;22.67;;
870;SDS011;422;51.280;7.236;2023-07-20T05:32:45;24.57;;;21.97;;
870;SDS011;422;51.280;7.236;2023-07-20T05:35:16;26.10;;;23.23;;
870;SDS011;422;51.280;7.236;2023-07-20T05:37:43;27.47;;;24.77;;
870;SDS011;422;51.280;7.236;2023-07-20T05:40:11;29.03;;;25.27;;
870;SDS011;422;51.280;7.236;2023-07-20T05:42:39;30.50;;;25.03;;
870;SDS011;422;51.280;7.236;2023-07-20T05:45:07;30.27;;;27.27;;
870;SDS011;422;51.280;7.236;2023-07-20T05:47:34;31.60;;;28.30;;
870;SDS011;422;51.280;7.236;2023-07-20T05:50:03;30.07;;;26.87;;
870;SDS011;422;51.280;7.236;2023-07-20T05:52:31;27.87;;;24.87;;
870;SDS011;422;51.280;7.236;2023-07-20T05:54:59;27.67;;;24.97;;
870;SDS011;422;51.280;7.236;2023-07-20T05:57:26;30.00;;;26.87;;
870;SDS011;422;51.280;7.236;2023-07-20T05:59:53;27.40;;;24.80;;
870;SDS011;422;51.280;7.236;2023-07-20T06:02:20;27.57;;;24.67;;
870;SDS011;422;51.280;7.236;2023-07-20T06:04:48;30.53;;;27.60;;
870;SDS011;422;51.280;7.236;2023-07-20T06:07:16;27.93;;;25.20;;
870;SDS011;422;51.280;7.236;2023-07-20T06:09:44;27.40;;;24.87;;
870;SDS011;422;51.280;7.236;2023-07-20T06:12:11;26.80;;;24.20;;
870;SDS011;422;51.280;7.236;2023-07-20T06:14:38;24.97;;;22.57;;
870;SDS011;422;51.280;7.236;2023-07-20T06:17:05;23.90;;;21.37;;
870;SDS011;422;51.280;7.236;2023-07-20T06:19:33;21.27;;;19.10;;
870;SDS011;422;51.280;7.236;2023-07-20T06:22:00;16.30;;;14.80;;
870;SDS011;422;51.280;7.236;2023-07-20T06:24:29;16.27;;;14.80;;
870;SDS011;422;51.280;7.236;2023-07-20T06:26:56;15.03;;;13.50;;
870;SDS011;422;51.280;7.236;2023-07-20T06:29:23;14.93;;;13.53;;
870;SDS011;422;51.280;7.236;2023-07-20T06:31:50;16.17;;;14.77;;
870;SDS011;422;51.280;7.236;2023-07-20T06:34:17;16.23;;;14.63;;
870;SDS011;422;51.280;7.236;2023-07-20T06:36:45;15.37;;;13.77;;
870;SDS011;422;51.280;7.236;2023-07-20T06:39:12;16.00;;;14.30;;
870;SDS011;422;51.280;7.236;2023-07-20T06:41:41;17.07;;;15.37;;
870;SDS011;422;51.280;7.236;2023-07-20T06:44:08;13.47;;;12.27;;
870;SDS011;422;51.280;7.236;2023-07-20T06:46:36;14.23;;;12.80;;
870;SDS011;422;51.280;7.236;2023-07-20T06:49:05;12.03;;;11.03;;
870;SDS011;422;51.280;7.236;2023-07-20T06:51:34;14.30;;;11.50;;
870;SDS011;422;51.280;7.236;2023-07-20T06:54:01;12.23;;;11.03;;
870;SDS011;422;51.280;7.236;2023-07-20T06:56:29;13.80;;;12.60;;
870;SDS011;422;51.280;7.236;2023-07-20T06:58:58;17.73;;;16.17;;
870;SDS011;422;51.280;7.236;2023-07-20T07:01:28;19.43;;;17.80;;
870;SDS011;422;51.280;7.236;2023-07-20T07:03:55;20.10;;;18.20;;
870;SDS011;422;51.280;7.236;2023-07-20T07:06:22;21.07;;;19.30;;
870;SDS011;422;51.280;7.236;2023-07-20T07:08:49;20.43;;;18.50;;
870;SDS011;422;51.280;7.236;2023-07-20T07:11:16;19.20;;;17.57;;
870;SDS011;422;51.280;7.236;2023-07-20T07:13:44;16.67;;;15.17;;
870;SDS011;422;51.280;7.236;2023-07-20T07:16:13;13.83;;;12.63;;
870;SDS011;422;51.280;7.236;2023-07-20T07:18:43;14.27;;;13.10;;
870;SDS011;422;51.280;7.236;2023-07-20T07:21:11;13.83;;;12.67;;
870;SDS011;422;51.280;7.236;2023-07-20T07:23:38;15.90;;;13.13;;
870;SDS011;422;51.280;7.236;2023-07-20T07:26:06;13.13;;;11.93;;
870;SDS011;422;51.280;7.236;2023-07-20T07:28:33;12.10;;;11.10;;
870;SDS011;422;51.280;7.236;2023-07-20T07:31:02;11.90;;;10.93;;
870;SDS011;422;51.280;7.236;2023-07-20T07:33:32;13.10;;;12.00;;
870;SDS011;422;51.280;7.236;2023-07-20T07:36:00;11.30;;;10.40;;
870;SDS011;422;51.280;7.236;2023-07-20T07:38:27;14.10;;;10.80;;
870;SDS011;422;51.280;7.236;2023-07-20T07:40:55;10.30;;;9.50;;
870;SDS011;422;51.280;7.236;2023-07-20T07:43:24;10.10;;;9.20;;
870;SDS011;422;51.280;7.236;2023-07-20T07:45:53;9.83;;;9.03;;
870;SDS011;422;51.280;7.236;2023-07-20T07:48:21;8.70;;;8.00;;
870;SDS011;422;51.280;7.236;2023-07-20T07:50:51;8.27;;;7.57;;
870;SDS011;422;51.280;7.236;2023-07-20T07:53:20;6.80;;;6.30;;
870;SDS011;422;51.280;7.236;2023-07-20T07:55:47;6.80;;;6.30;;
870;SDS011;422;51.280;7.236;2023-07-20T07:58:14;6.53;;;6.03;;
870;SDS011;422;51.280;7.236;2023-07-20T08:00:42;6.43;;;5.93;;
870;SDS011;422;51.280;7.236;2023-07-20T08:03:09;6.47;;;5.87;;
870;SDS011;422;51.280;7.236;2023-07-20T08:05:37;6.20;;;5.70;;
870;SDS011;422;51.280;7.236;2023-07-20T08:08:05;5.10;;;4.67;;
870;SDS011;422;51.280;7.236;2023-07-20T08:10:33;5.77;;;5.37;;
870;SDS011;422;51.280;7.236;2023-07-20T08:13:01;6.73;;;5.90;;
870;SDS011;422;51.280;7.236;2023-07-20T08:15:28;5.70;;;5.23;;
870;SDS011;422;51.280;7.236;2023-07-20T08:17:55;6.30;;;5.80;;
870;SDS011;422;51.280;7.236;2023-07-20T08:20:22;6.83;;;6.33;;
870;SDS011;422;51.280;7.236;2023-07-20T08:22:51;7.37;;;6.80;;
870;SDS011;422;51.280;7.236;2023-07-20T08:25:21;7.10;;;6.53;;
870;SDS011;422;51.280;7.236;2023-07-20T08:27:48;7.00;;;4.80;;
870;SDS011;422;51.280;7.236;2023-07-20T08:30:15;4.90;;;4.50;;
870;SDS011;422;51.280;7.236;2023-07-20T08:32:43;5.70;;;5.30;;
870;SDS011;422;51.280;7.236;2023-07-20T08:35:10;5.63;;;5.23;;
870;SDS011;422;51.280;7.236;2023-07-20T08:37:37;5.00;;;4.60;;
870;SDS011;422;51.280;7.236;2023-07-20T08:40:05;5.33;;;4.93;;
870;SDS011;422;51.280;7.236;2023-07-20T08:42:36;4.40;;;4.10;;
870;SDS011;422;51.280;7.236;2023-07-20T08:45:06;5.17;;;4.77;;
870;SDS011;422;51.280;7.236;2023-07-20T08:47:35;4.17;;;3.87;;
870;SDS011;422;51.280;7.236;2023-07-20T08:50:02;3.70;;;3.40;;
870;SDS011;422;51.280;7.236;2023-07-20T08:52:34;4.00;;;3.60;;
870;SDS011;422;51.280;7.236;2023-07-20T08:55:01;3.43;;;3.13;;
870;SDS011;422;51.280;7.236;2023-07-20T08:57:30;4.63;;;4.30;;
870;SDS011;422;51.280;7.236;2023-07-20T09:00:01;4.80;;;4.40;;
870;SDS011;422;51.280;7.236;2023-07-20T09:02:32;5.13;;;4.77;;
870;SDS011;422;51.280;7.236;2023-07-20T09:05:05;5.50;;;5.10;;
870;SDS011;422;51.280;7.236;2023-07-20T09:07:34;6.97;;;6.37;;
870;SDS011;422;51.280;7.236;2023-07-20T09:10:02;5.33;;;5.00;;
870;SDS011;422;51.280;7.236;2023-07-20T09:12:31;6.70;;;6.20;;
870;SDS011;422;51.280;7.236;2023-07-20T09:14:59;5.30;;;4.90;;
870;SDS011;422;51.280;7.236;2023-07-20T09:17:27;6.90;;;6.40;;
870;SDS011;422;51.280;7.236;2023-07-20T09:19:55;5.10;;;4.80;;
870;SDS011;422;51.280;7.236;2023-07-20T09:22:22;4.90;;;4.50;;
870;SDS011;422;51.280;7.236;2023-07-20T09:24:56;6.00;;;5.60;;
870;SDS011;422;51.280;7.236;2023-07-20T09:27:29;5.47;;;5.07;;
870;SDS011;422;51.280;7.236;2023-07-20T09:30:02;5.47;;;5.07;;
870;SDS011;422;51.280;7.236;2023-07-20T09:32:35;4.37;;;4.07;;
870;SDS011;422;51.280;7.236;2023-07-20T09:35:06;4.13;;;3.83;;
870;SDS011;422;51.280;7.236;2023-07-20T09:37:38;5.10;;;4.70;;
870;SDS011;422;51.280;7.236;2023-07-20T09:40:06;5.37;;;4.97;;
870;SDS011;422;51.280;7.236;2023-07-20T09:42:35;5.80;;;5.30;;
870;SDS011;422;51.280;7.236;2023-07-20T09:45:06;6.30;;;5.80;;
870;SDS011;422;51.280;7.236;2023-07-20T09:47:36;6.20;;;5.70;;
870;SDS011;422;51.280;7.236;2023-07-20T09:50:05;4.73;;;4.43;;
870;SDS011;422;51.280;7.236;2023-07-20T09:52:37;4.50;;;4.20;;
870;SDS011;422;51.280;7.236;2023-07-20T09:55:06;5.57;;;5.17;;
870;SDS011;422;51.280;7.236;2023-07-20T09:57:34;4.93;;;4.53;;
870;SDS011;422;51.280;7.236;2023-07-20T10:00:03;3.83;;;3.63;;
870;SDS011;422;51.280;7.236;2023-07-20T10:02:41;4.40;;;4.10;;
870;SDS011;422;51.280;7.236;2023-07-20T10:05:11;4.97;;;3.17;;
870;SDS011;422;51.280;7.236;2023-07-20T10:07:43;5.43;;;2.90;;
870;SDS011;422;51.280;7.236;2023-07-20T10:10:13;2.83;;;2.63;;
870;SDS011;422;51.280;7.236;2023-07-20T10:12:42;2.57;;;2.37;;
870;SDS011;422;51.280;7.236;2023-07-20T10:15:15;3.10;;;2.90;;
870;SDS011;422;51.280;7.236;2023-07-20T10:17:49;3.30;;;3.10;;
870;SDS011;422;51.280;7.236;2023-07-20T10:20:24;3.30;;;3.10;;
870;SDS011;422;51.280;7.236;2023-07-20T10:22:53;2.80;;;2.60;;
870;SDS011;422;51.280;7.236;2023-07-20T10:25:22;3.17;;;2.97;;
870;SDS011;422;51.280;7.236;2023-07-20T10:27:50;3.50;;;3.20;;
870;SDS011;422;51.280;7.236;2023-07-20T10:30:17;2.87;;;2.67;;
870;SDS011;422;51.280;7.236;2023-07-20T10:32:46;3.20;;;2.73;;
870;SDS011;422;51.280;7.236;2023-07-20T10:35:16;3.03;;;2.83;;
870;SDS011;422;51.280;7.236;2023-07-20T10:37:47;3.27;;;3.07;;
870;SDS011;422;51.280;7.236;2023-07-20T10:40:24;4.00;;;3.70;;
870;SDS011;422;51.280;7.236;2023-07-20T10:42:56;4.33;;;4.03;;
870;SDS011;422;51.280;7.236;2023-07-20T10:48:20;3.90;;;3.60;;
870;SDS011;422;51.280;7.236;2023-07-20T10:53:47;3.80;;;3.50;;
870;SDS011;422;51.280;7.236;2023-07-20T10:56:15;3.63;;;3.43;;
870;SDS011;422;51.280;7.236;2023-07-20T10:58:47;3.57;;;3.37;;
870;SDS011;422;51.280;7.236;2023-07-20T11:01:15;3.43;;;3.17;;
870;SDS011;422;51.280;7.236;2023-07-20T11:03:48;3.93;;;3.63;;
870;SDS011;422;51.280;7.236;2023-07-20T11:06:32;3.23;;;3.03;;
870;SDS011;422;51.280;7.236;2023-07-20T11:09:04;3.30;;;3.00;;
870;SDS011;422;51.280;7.236;2023-07-20T11:11:33;3.67;;;3.37;;
870;SDS011;422;51.280;7.236;2023-07-20T11:14:02;2.97;;;2.70;;
870;SDS011;422;51.280;7.236;2023-07-20T11:16:36;3.80;;;3.20;;
870;SDS011;422;51.280;7.236;2023-07-20T11:19:15;3.00;;;2.80;;
870;SDS011;422;51.280;7.236;2023-07-20T11:21:43;2.87;;;2.50;;
870;SDS011;422;51.280;7.236;2023-07-20T11:24:12;3.03;;;2.77;;
870;SDS011;422;51.280;7.236;2023-07-20T11:26:40;2.63;;;2.37;;
870;SDS011;422;51.280;7.236;2023-07-20T11:29:09;2.70;;;2.50;;
870;SDS011;422;51.280;7.236;2023-07-20T11:31:36;2.80;;;2.60;;
870;SDS011;422;51.280;7.236;2023-07-20T11:34:04;3.50;;;3.00;;
870;SDS011;422;51.280;7.236;2023-07-20T11:36:33;3.37;;;3.17;;
870;SDS011;422;51.280;7.236;2023-07-20T11:39:00;3.80;;;3.50;;
870;SDS011;422;51.280;7.236;2023-07-20T11:41:30;3.10;;;2.80;;
870;SDS011;422;51.280;7.236;2023-07-20T11:43:58;3.80;;;3.50;;
870;SDS011;422;51.280;7.236;2023-07-20T11:46:25;4.43;;;3.90;;
870;SDS011;422;51.280;7.236;2023-07-20T11:48:57;3.60;;;3.30;;
870;SDS011;422;51.280;7.236;2023-07-20T11:51:26;2.80;;;2.60;;
870;SDS011;422;51.280;7.236;2023-07-20T11:53:56;3.40;;;2.83;;
870;SDS011;422;51.280;7.236;2023-07-20T11:56:24;3.90;;;3.60;;
870;SDS011;422;51.280;7.236;2023-07-20T11:58:54;3.70;;;3.40;;
870;SDS011;422;51.280;7.236;2023-07-20T12:01:24;3.27;;;3.07;;
870;SDS011;422;51.280;7.236;2023-07-20T12:03:54;3.37;;;3.10;;
870;SDS011;422;51.280;7.236;2023-07-20T12:06:23;3.70;;;3.40;;
870;SDS011;422;51.280;7.236;2023-07-20T12:08:53;4.37;;;3.93;;
870;SDS011;422;51.280;7.236;2023-07-20T12:11:30;3.33;;;3.03;;
870;SDS011;422;51.280;7.236;2023-07-20T12:13:58;3.43;;;3.13;;
870;SDS011;422;51.280;7.236;2023-07-20T12:16:26;3.50;;;3.20;;
870;SDS011;422;51.280;7.236;2023-07-20T12:18:59;5.17;;;3.40;;
870;SDS011;422;51.280;7.236;2023-07-20T12:21:27;3.50;;;3.30;;
870;SDS011;422;51.280;7.236;2023-07-20T12:23:57;4.57;;;4.20;;
870;SDS011;422;51.280;7.236;2023-07-20T12:26:25;4.20;;;3.90;;
870;SDS011;422;51.280;7.236;2023-07-20T12:28:55;4.73;;;4.13;;
870;SDS011;422;51.280;7.236;2023-07-20T12:31:23;4.30;;;4.00;;
870;SDS011;422;51.280;7.236;2023-07-20T12:33:51;4.47;;;4.17;;
870;SDS011;422;51.280;7.236;2023-07-20T12:36:18;3.63;;;3.33;;
870;SDS011;422;51.280;7.236;2023-07-20T12:38:45;3.60;;;3.30;;
870;SDS011;422;51.280;7.236;2023-07-20T12:41:15;3.20;;;3.00;;
870;SDS011;422;51.280;7.236;2023-07-20T12:43:43;3.97;;;3.67;;
870;SDS011;422;51.280;7.236;2023-07-20T12:46:12;3.20;;;2.90;;
870;SDS011;422;51.280;7.236;2023-07-20T12:48:40;2.60;;;2.40;;
870;SDS011;422;51.280;7.236;2023-07-20T12:51:08;3.03;;;2.83;;
870;SDS011;422;51.280;7.236;2023-07-20T12:53:37;2.90;;;2.70;;
870;SDS011;422;51.280;7.236;2023-07-20T12:56:04;3.40;;;3.10;;
870;SDS011;422;51.280;7.236;2023-07-20T12:58:33;3.40;;;3.20;;
870;SDS011;422;51.280;7.236;2023-07-20T13:01:02;3.33;;;3.10;;
870;SDS011;422;51.280;7.236;2023-07-20T13:03:29;5.03;;;3.73;;
870;SDS011;422;51.280;7.236;2023-07-20T13:05:56;3.87;;;3.57;;
870;SDS011;422;51.280;7.236;2023-07-20T13:08:24;3.00;;;2.80;;
870;SDS011;422;51.280;7.236;2023-07-20T13:10:52;3.90;;;3.60;;
870;SDS011;422;51.280;7.236;2023-07-20T13:13:20;4.30;;;3.70;;
870;SDS011;422;51.280;7.236;2023-07-20T13:15:52;4.07;;;3.67;;
870;SDS011;422;51.280;7.236;2023-07-20T13:18:19;3.80;;;3.50;;
870;SDS011;422;51.280;7.236;2023-07-20T13:20:47;3.50;;;3.20;;
870;SDS011;422;51.280;7.236;2023-07-20T13:23:14;3.33;;;3.03;;
870;SDS011;422;51.280;7.236;2023-07-20T13:25:41;3.70;;;3.40;;
870;SDS011;422;51.280;7.236;2023-07-20T13:28:09;3.10;;;2.90;;
870;SDS011;422;51.280;7.236;2023-07-20T13:30:36;3.10;;;2.80;;
870;SDS011;422;51.280;7.236;2023-07-20T13:33:05;3.07;;;2.77;;
870;SDS011;422;51.280;7.236;2023-07-20T13:35:35;3.10;;;2.80;;
870;SDS011;422;51.280;7.236;2023-07-20T13:38:02;2.73;;;2.53;;
870;SDS011;422;51.280;7.236;2023-07-20T13:40:29;3.43;;;2.27;;
870;SDS011;422;51.280;7.236;2023-07-20T13:42:56;3.00;;;2.40;;
870;SDS011;422;51.280;7.236;2023-07-20T13:45:24;2.93;;;2.73;;
870;SDS011;422;51.280;7.236;2023-07-20T13:47:51;2.90;;;2.50;;
870;SDS011;422;51.280;7.236;2023-07-20T13:50:20;2.93;;;2.73;;
870;SDS011;422;51.280;7.236;2023-07-20T13:52:47;3.07;;;2.40;;
870;SDS011;422;51.280;7.236;2023-07-20T13:55:15;3.13;;;2.47;;
870;SDS011;422;51.280;7.236;2023-07-20T13:57:42;3.17;;;2.87;;
870;SDS011;422;51.280;7.236;2023-07-20T14:00:10;3.00;;;2.43;;
870;SDS011;422;51.280;7.236;2023-07-20T14:02:38;2.93;;;2.73;;
870;SDS011;422;51.280;7.236;2023-07-20T14:05:06;2.90;;;2.40;;
870;SDS011;422;51.280;7.236;2023-07-20T14:07:36;3.40;;;3.20;;
870;SDS011;422;51.280;7.236;2023-07-20T14:10:03;3.60;;;3.10;;
870;SDS011;422;51.280;7.236;2023-07-20T14:12:31;2.97;;;2.77;;
870;SDS011;422;51.280;7.236;2023-07-20T14:14:59;3.10;;;2.90;;
870;SDS011;422;51.280;7.236;2023-07-20T14:17:26;3.17;;;2.97;;
870;SDS011;422;51.280;7.236;2023-07-20T14:19:55;3.40;;;3.10;;
870;SDS011;422;51.280;7.236;2023-07-20T14:22:22;2.70;;;2.50;;
870;SDS011;422;51.280;7.236;2023-07-20T14:24:50;3.30;;;3.10;;
870;SDS011;422;51.280;7.236;2023-07-20T14:27:18;2.97;;;2.77;;
870;SDS011;422;51.280;7.236;2023-07-20T14:29:45;3.47;;;3.20;;
870;SDS011;422;51.280;7.236;2023-07-20T14:32:12;3.20;;;2.90;;
870;SDS011;422;51.280;7.236;2023-07-20T14:34:40;3.87;;;2.97;;
870;SDS011;422;51.280;7.236;2023-07-20T14:37:07;2.43;;;2.23;;
870;SDS011;422;51.280;7.236;2023-07-20T14:39:34;7.40;;;3.03;;
870;SDS011;422;51.280;7.236;2023-07-20T14:42:03;3.53;;;2.83;;
870;SDS011;422;51.280;7.236;2023-07-20T14:44:33;3.60;;;3.30;;
870;SDS011;422;51.280;7.236;2023-07-20T14:47:00;3.00;;;2.70;;
870;SDS011;422;51.280;7.236;2023-07-20T14:49:28;2.97;;;2.77;;
870;SDS011;422;51.280;7.236;2023-07-20T14:51:55;2.83;;;2.63;;
870;SDS011;422;51.280;7.236;2023-07-20T14:54:22;3.40;;;2.90;;
870;SDS011;422;51.280;7.236;2023-07-20T14:56:50;2.93;;;2.73;;
870;SDS011;422;51.280;7.236;2023-07-20T14:59:19;3.30;;;2.90;;
870;SDS011;422;51.280;7.236;2023-07-20T15:01:47;3.33;;;3.03;;
870;SDS011;422;51.280;7.236;2023-07-20T15:04:14;2.83;;;2.63;;
870;SDS011;422;51.280;7.236;2023-07-20T15:06:41;3.33;;;2.90;;
870;SDS011;422;51.280;7.236;2023-07-20T15:09:09;3.57;;;3.27;;
870;SDS011;422;51.280;7.236;2023-07-20T15:11:36;2.93;;;2.63;;
870;SDS011;422;51.280;7.236;2023-07-20T15:14:03;3.70;;;2.23;;
870;SDS011;422;51.280;7.236;2023-07-20T15:16:32;3.30;;;2.97;;
870;SDS011;422;51.280;7.236;2023-07-20T15:19:00;3.33;;;2.80;;
870;SDS011;422;51.280;7.236;2023-07-20T15:21:27;2.50;;;2.30;;
870;SDS011;422;51.280;7.236;2023-07-20T15:23:56;3.33;;;2.60;;
870;SDS011;422;51.280;7.236;2023-07-20T15:26:24;3.00;;;2.80;;
870;SDS011;422;51.280;7.236;2023-07-20T15:28:51;4.20;;;2.53;;
870;SDS011;422;51.280;7.236;2023-07-20T15:31:19;2.70;;;2.50;;
870;SDS011;422;51.280;7.236;2023-07-20T15:33:48;2.50;;;2.30;;
870;SDS011;422;51.280;7.236;2023-07-20T15:36:15;2.60;;;2.40;;
870;SDS011;422;51.280;7.236;2023-07-20T15:38:42;2.47;;;2.27;;
870;SDS011;422;51.280;7.236;2023-07-20T15:41:10;2.60;;;2.30;;
870;SDS011;422;51.280;7.236;2023-07-20T15:43:37;2.97;;;2.20;;
870;SDS011;422;51.280;7.236;2023-07-20T15:49:13;3.50;;;2.40;;
870;SDS011;422;51.280;7.236;2023-07-20T15:51:41;2.50;;;2.30;;
870;SDS011;422;51.280;7.236;2023-07-20T15:54:11;2.80;;;2.20;;